createdAt,value
2018-09-04T00:00:57.523Z,25.50
2018-09-04T00:03:24.975Z,25.80
2018-09-04T00:05:52.456Z,26.40
2018-09-04T00:08:19.872Z,25.80
2018-09-04T00:10:47.363Z,25.90
2018-09-04T00:13:14.812Z,25.70
2018-09-04T00:15:42.288Z,26.60
2018-09-04T00:18:09.692Z,26.90
2018-09-04T00:20:37.120Z,27.20
2018-09-04T00:23:04.556Z,27.00
2018-09-04T00:25:32.042Z,27.20
2018-09-04T00:27:59.461Z,28.30
2018-09-04T00:30:26.911Z,27.10
2018-09-04T00:32:54.384Z,27.20
2018-09-04T00:35:21.846Z,28.60
2018-09-04T00:37:49.304Z,31.60
2018-09-04T00:40:16.737Z,29.50
2018-09-04T00:42:44.187Z,29.00
2018-09-04T00:45:11.636Z,33.70
2018-09-04T00:47:39.083Z,40.50
2018-09-04T00:50:06.759Z,40.30
2018-09-04T00:52:34.228Z,40.60
2018-09-04T00:55:01.756Z,38.60
2018-09-04T00:57:29.448Z,37.80
2018-09-04T00:59:56.888Z,36.30
2018-09-04T01:02:24.360Z,36.70
2018-09-04T01:04:51.812Z,36.30
2018-09-04T01:07:19.348Z,35.60
2018-09-04T01:09:46.840Z,40.60
2018-09-04T01:12:14.352Z,41.00
2018-09-04T01:14:41.932Z,47.40
2018-09-04T01:17:09.379Z,49.60
2018-09-04T01:19:36.820Z,47.10
2018-09-04T01:22:04.721Z,43.80
2018-09-04T01:24:32.252Z,42.20
2018-09-04T01:26:59.744Z,39.60
2018-09-04T01:29:27.168Z,38.90
2018-09-04T01:31:54.592Z,38.90
2018-09-04T01:34:21.976Z,38.20
2018-09-04T01:36:49.405Z,38.70
2018-09-04T01:39:17.097Z,38.70
2018-09-04T01:41:44.516Z,39.10
2018-09-04T01:44:11.920Z,39.00
2018-09-04T01:46:39.667Z,39.20
2018-09-04T01:49:07.076Z,43.40
2018-09-04T01:51:34.560Z,43.50
2018-09-04T01:54:02.007Z,48.70
2018-09-04T01:56:29.435Z,49.20
2018-09-04T01:58:56.862Z,52.50
2018-09-04T02:01:24.385Z,52.50
2018-09-04T02:03:51.856Z,48.80
2018-09-04T02:06:19.520Z,47.10
2018-09-04T02:08:47.000Z,46.10
2018-09-04T02:11:14.428Z,50.00
2018-09-04T02:13:41.903Z,51.30
2018-09-04T02:16:09.340Z,50.70
2018-09-04T02:18:36.775Z,53.20
2018-09-04T02:21:04.783Z,56.20
2018-09-04T02:23:32.229Z,50.80
2018-09-04T02:25:59.678Z,51.90
2018-09-04T02:28:27.137Z,54.80
2018-09-04T02:30:54.552Z,52.90
2018-09-04T02:33:22.069Z,48.30
2018-09-04T02:35:49.512Z,54.30
2018-09-04T02:38:17.016Z,57.70
2018-09-04T02:40:44.456Z,51.20
2018-09-04T02:43:11.891Z,50.20
2018-09-04T02:45:39.332Z,50.10
2018-09-04T02:48:06.812Z,52.40
2018-09-04T02:50:34.236Z,53.00
2018-09-04T02:53:01.711Z,51.60
2018-09-04T02:55:29.172Z,51.10
2018-09-04T02:57:56.622Z,51.60
2018-09-04T03:00:24.028Z,55.30
2018-09-04T03:02:52.269Z,52.20
2018-09-04T03:05:19.710Z,50.70
2018-09-04T03:07:47.280Z,53.70
2018-09-04T03:10:14.715Z,52.20
2018-09-04T03:12:42.136Z,56.70
2018-09-04T03:15:09.552Z,57.10
2018-09-04T03:17:36.963Z,53.00
2018-09-04T03:20:04.429Z,52.90
2018-09-04T03:22:31.990Z,54.60
2018-09-04T03:24:59.691Z,51.80
2018-09-04T03:27:27.207Z,53.10
2018-09-04T03:29:54.659Z,50.80
2018-09-04T03:32:22.148Z,52.50
2018-09-04T03:34:49.711Z,50.80
2018-09-04T03:37:17.149Z,48.80
2018-09-04T03:39:44.629Z,47.60
2018-09-04T03:42:12.057Z,49.60
2018-09-04T03:44:39.685Z,54.40
2018-09-04T03:47:07.272Z,51.60
2018-09-04T03:49:35.120Z,49.90
2018-09-04T03:52:02.705Z,46.60
2018-09-04T03:54:30.903Z,44.70
2018-09-04T03:56:58.347Z,45.30
2018-09-04T03:59:25.878Z,46.40
2018-09-04T04:01:53.420Z,45.50
2018-09-04T04:04:20.840Z,44.60
2018-09-04T04:06:48.392Z,44.30
2018-09-04T04:09:15.859Z,43.60
2018-09-04T04:11:43.293Z,46.80
2018-09-04T04:14:10.745Z,47.60
2018-09-04T04:16:38.219Z,45.40
2018-09-04T04:19:05.658Z,43.20
2018-09-04T04:21:33.176Z,42.10
2018-09-04T04:24:00.724Z,43.50
2018-09-04T04:26:28.164Z,47.20
2018-09-04T04:28:55.608Z,46.50
2018-09-04T04:31:23.003Z,44.20
2018-09-04T04:33:50.448Z,43.00
2018-09-04T04:36:17.916Z,44.00
2018-09-04T04:38:45.332Z,44.10
2018-09-04T04:41:12.788Z,42.70
2018-09-04T04:43:40.202Z,41.40
2018-09-04T04:46:07.611Z,42.00
2018-09-04T04:48:35.032Z,42.30
2018-09-04T04:51:02.572Z,43.10
2018-09-04T04:53:30.048Z,42.00
2018-09-04T04:55:57.483Z,42.70
2018-09-04T04:58:24.898Z,48.30
2018-09-04T05:00:52.303Z,45.10
2018-09-04T05:03:19.735Z,43.60
2018-09-04T05:05:47.224Z,43.90
2018-09-04T05:08:14.631Z,42.80
2018-09-04T05:10:42.092Z,42.40
2018-09-04T05:13:09.664Z,49.80
2018-09-04T05:15:37.100Z,50.60
2018-09-04T05:18:04.681Z,49.60
2018-09-04T05:20:32.197Z,52.80
2018-09-04T05:22:59.724Z,50.20
2018-09-04T05:25:27.297Z,49.90
2018-09-04T05:27:54.748Z,49.70
2018-09-04T05:30:22.266Z,49.00
2018-09-04T05:32:55.585Z,47.70
2018-09-04T05:35:23.044Z,50.10
2018-09-04T05:37:50.492Z,51.70
2018-09-04T05:40:17.989Z,49.40
2018-09-04T05:42:49.328Z,49.50
2018-09-04T05:45:17.093Z,46.40
2018-09-04T05:47:44.640Z,54.30
2018-09-04T05:50:12.206Z,53.70
2018-09-04T05:52:40.232Z,51.70
2018-09-04T05:55:07.829Z,50.80
2018-09-04T05:57:35.360Z,54.20
2018-09-04T06:00:06.097Z,57.40
2018-09-04T06:02:33.644Z,56.20
2018-09-04T06:05:01.228Z,55.70
2018-09-04T06:07:28.740Z,59.90
2018-09-04T06:09:56.284Z,58.50
2018-09-04T06:12:23.760Z,56.30
2018-09-04T06:14:51.273Z,57.50
2018-09-04T06:17:18.812Z,55.20
2018-09-04T06:19:46.324Z,52.20
2018-09-04T06:22:13.857Z,55.00
2018-09-04T06:24:41.468Z,56.70
2018-09-04T06:27:08.925Z,56.10
2018-09-04T06:29:36.411Z,56.70
2018-09-04T06:32:03.803Z,59.30
2018-09-04T06:34:31.315Z,59.50
2018-09-04T06:36:58.992Z,62.40
2018-09-04T06:39:26.444Z,61.70
2018-09-04T06:41:53.924Z,61.80
2018-09-04T06:44:21.384Z,61.00
2018-09-04T06:46:48.942Z,64.90
2018-09-04T06:49:16.420Z,64.40
2018-09-04T06:51:43.899Z,63.60
2018-09-04T06:54:11.649Z,64.80
2018-09-04T06:56:39.089Z,62.90
2018-09-04T06:59:06.565Z,60.70
2018-09-04T07:01:34.122Z,60.40
2018-09-04T07:04:01.873Z,58.90
2018-09-04T07:06:29.365Z,60.00
2018-09-04T07:08:56.937Z,59.30
2018-09-04T07:11:24.384Z,59.40
2018-09-04T07:13:51.816Z,59.40
2018-09-04T07:16:19.237Z,60.80
2018-09-04T07:18:46.793Z,62.10
2018-09-04T07:21:14.217Z,60.60
2018-09-04T07:23:41.639Z,60.80
2018-09-04T07:26:13.685Z,61.10
2018-09-04T07:28:41.182Z,61.10
2018-09-04T07:31:08.660Z,59.10
2018-09-04T07:33:36.221Z,57.40
2018-09-04T07:36:03.769Z,55.90
2018-09-04T07:38:31.329Z,54.70
2018-09-04T07:40:58.804Z,52.30
2018-09-04T07:43:26.241Z,50.60
2018-09-04T07:45:53.683Z,47.30
2018-09-04T07:48:21.104Z,44.10
2018-09-04T07:50:48.583Z,41.60
2018-09-04T07:53:19.504Z,40.10
2018-09-04T07:55:47.071Z,38.50
2018-09-04T07:58:14.554Z,37.70
2018-09-04T08:00:42.065Z,37.70
2018-09-04T08:03:09.479Z,37.40
2018-09-04T08:05:36.891Z,36.10
2018-09-04T08:08:04.360Z,35.60
2018-09-04T08:10:34.227Z,34.40
2018-09-04T08:13:03.373Z,32.80
2018-09-04T08:15:30.884Z,30.40
2018-09-04T08:17:58.491Z,30.00
2018-09-04T08:20:26.141Z,28.90
2018-09-04T08:22:54.354Z,29.10
2018-09-04T08:25:22.329Z,26.10
2018-09-04T08:27:49.772Z,23.10
2018-09-04T08:30:17.222Z,21.10
2018-09-04T08:32:44.684Z,21.20
2018-09-04T08:35:12.084Z,21.50
2018-09-04T08:37:39.536Z,21.40
2018-09-04T08:40:07.065Z,21.10
2018-09-04T08:42:34.560Z,19.00
2018-09-04T08:45:02.122Z,18.20
2018-09-04T08:47:30.069Z,19.90
2018-09-04T08:49:57.542Z,20.50
2018-09-04T08:52:24.995Z,20.50
2018-09-04T08:54:52.438Z,20.40
2018-09-04T08:57:19.895Z,20.40
2018-09-04T08:59:47.454Z,20.40
2018-09-04T09:02:14.887Z,21.50
2018-09-04T09:04:42.313Z,20.60
2018-09-04T09:07:09.734Z,18.30
2018-09-04T09:09:37.133Z,17.20
2018-09-04T09:12:04.625Z,18.80
2018-09-04T09:14:32.145Z,19.20
2018-09-04T09:16:59.622Z,18.50
2018-09-04T09:19:27.176Z,18.40
2018-09-04T09:21:54.736Z,18.30
2018-09-04T09:24:22.146Z,18.00
2018-09-04T09:26:49.680Z,17.60
2018-09-04T09:29:17.136Z,17.30
2018-09-04T09:31:44.544Z,17.30
2018-09-04T09:34:12.018Z,16.40
2018-09-04T09:36:39.479Z,16.70
2018-09-04T09:39:08.100Z,18.00
2018-09-04T09:41:36.732Z,15.90
2018-09-04T09:44:04.165Z,16.50
2018-09-04T09:46:31.639Z,15.80
2018-09-04T09:48:59.061Z,15.30
2018-09-04T09:51:26.541Z,15.30
2018-09-04T09:53:53.960Z,14.10
2018-09-04T09:56:21.408Z,13.90
2018-09-04T09:58:48.797Z,12.20
2018-09-04T10:01:23.928Z,11.00
2018-09-04T10:03:59.579Z,8.60
2018-09-04T10:06:27.409Z,9.40
2018-09-04T10:08:54.944Z,9.90
2018-09-04T10:11:22.532Z,8.30
2018-09-04T10:13:50.176Z,7.60
2018-09-04T10:16:17.757Z,9.10
2018-09-04T10:18:45.250Z,7.90
2018-09-04T10:21:12.846Z,5.80
2018-09-04T10:23:40.224Z,6.50
2018-09-04T10:26:07.712Z,7.10
2018-09-04T10:28:35.160Z,6.70
2018-09-04T10:31:02.639Z,6.50
2018-09-04T10:33:30.115Z,5.10
2018-09-04T10:35:57.735Z,3.30
2018-09-04T10:38:26.753Z,4.30
2018-09-04T10:41:00.385Z,2.30
2018-09-04T10:43:28.994Z,2.30
2018-09-04T10:45:59.783Z,1.90
2018-09-04T10:48:27.689Z,1.40
2018-09-04T10:50:55.145Z,1.00
2018-09-04T10:53:22.569Z,1.00
2018-09-04T10:55:50.045Z,1.00
2018-09-04T10:58:17.461Z,1.00
2018-09-04T11:00:44.952Z,1.00
2018-09-04T11:03:12.516Z,1.00
2018-09-04T11:05:40.165Z,1.00
2018-09-04T11:08:07.698Z,1.00
2018-09-04T11:10:35.166Z,1.30
2018-09-04T11:13:02.664Z,1.00
2018-09-04T11:15:30.166Z,1.00
2018-09-04T11:17:57.656Z,1.00
2018-09-04T11:20:25.224Z,1.00
2018-09-04T11:22:52.789Z,1.00
2018-09-04T11:25:20.481Z,1.00
2018-09-04T11:27:48.020Z,1.00
2018-09-04T11:30:15.466Z,1.00
2018-09-04T11:32:43.087Z,1.00
2018-09-04T11:35:11.048Z,1.20
2018-09-04T11:37:38.557Z,1.00
2018-09-04T11:40:06.961Z,1.00
2018-09-04T11:42:35.056Z,1.00
2018-09-04T11:45:02.525Z,1.00
2018-09-04T11:47:29.924Z,1.00
2018-09-04T11:49:57.176Z,1.00
2018-09-04T11:52:24.506Z,1.00
2018-09-04T11:54:51.796Z,1.00
2018-09-04T11:57:19.144Z,1.00
2018-09-04T11:59:46.504Z,1.00
2018-09-04T12:02:18.274Z,1.00
2018-09-04T12:04:45.465Z,1.00
2018-09-04T12:07:12.707Z,1.00
2018-09-04T12:09:40.690Z,1.00
2018-09-04T12:12:07.936Z,1.00
2018-09-04T12:14:36.646Z,1.00
2018-09-04T12:17:05.832Z,1.00
2018-09-04T12:19:41.276Z,1.00
2018-09-04T12:22:08.737Z,1.00
2018-09-04T12:24:36.008Z,1.00
2018-09-04T12:27:03.287Z,1.00
2018-09-04T12:29:30.577Z,1.00
2018-09-04T12:31:59.625Z,1.00
2018-09-04T12:34:26.889Z,1.00
2018-09-04T12:36:54.188Z,1.00
2018-09-04T12:39:21.413Z,1.00
2018-09-04T12:41:49.403Z,1.00
2018-09-04T12:44:16.814Z,1.00
2018-09-04T12:46:44.164Z,1.00
2018-09-04T12:49:11.465Z,1.00
2018-09-04T12:51:38.692Z,1.00
2018-09-04T12:54:05.971Z,1.00
2018-09-04T12:56:33.324Z,1.00
2018-09-04T12:59:00.576Z,1.00
2018-09-04T13:01:27.824Z,1.00
2018-09-04T13:03:55.613Z,1.00
2018-09-04T13:06:22.846Z,1.00
2018-09-04T13:08:50.099Z,1.00
2018-09-04T13:11:17.345Z,1.00
2018-09-04T13:13:44.626Z,1.00
2018-09-04T13:16:11.920Z,1.00
2018-09-04T13:18:39.108Z,1.00
2018-09-04T13:21:06.346Z,1.00
2018-09-04T13:23:34.732Z,1.00
2018-09-04T13:26:02.456Z,1.00
2018-09-04T13:28:30.324Z,1.00
2018-09-04T13:30:57.628Z,1.00
2018-09-04T13:33:24.961Z,1.00
2018-09-04T13:35:52.321Z,1.00
2018-09-04T13:38:20.022Z,1.00
2018-09-04T13:40:47.497Z,1.00
2018-09-04T13:43:14.809Z,1.00
2018-09-04T13:45:42.534Z,1.00
2018-09-04T13:48:09.789Z,1.00
2018-09-04T13:50:37.044Z,1.00
2018-09-04T13:53:04.424Z,1.00
2018-09-04T13:55:31.690Z,1.00
2018-09-04T13:57:58.924Z,1.00
2018-09-04T14:00:26.429Z,1.00
2018-09-04T14:02:53.689Z,1.00
2018-09-04T14:05:21.007Z,1.00
2018-09-04T14:07:48.438Z,1.00
2018-09-04T14:10:15.724Z,1.00
2018-09-04T14:12:42.952Z,1.00
2018-09-04T14:15:10.507Z,1.00
2018-09-04T14:17:37.742Z,1.00
2018-09-04T14:20:05.937Z,1.00
2018-09-04T14:22:33.285Z,1.00
2018-09-04T14:25:00.450Z,1.00
2018-09-04T14:27:27.688Z,1.00
2018-09-04T14:30:15.538Z,1.00
2018-09-04T14:32:22.121Z,1.00
2018-09-04T14:34:49.707Z,1.00
2018-09-04T14:37:17.314Z,1.00
2018-09-04T14:39:44.655Z,1.00
2018-09-04T14:42:12.185Z,1.00
2018-09-04T14:44:39.560Z,1.00
2018-09-04T14:47:07.015Z,1.00
2018-09-04T14:49:34.505Z,1.00
2018-09-04T14:52:02.092Z,1.00
2018-09-04T14:54:29.708Z,1.00
2018-09-04T14:56:57.200Z,1.00
2018-09-04T14:59:24.640Z,1.00
2018-09-04T15:01:52.084Z,1.00
2018-09-04T15:04:19.569Z,1.00
2018-09-04T15:06:47.199Z,1.00
2018-09-04T15:09:14.644Z,1.00
2018-09-04T15:11:42.084Z,1.00
2018-09-04T15:14:09.521Z,1.00
2018-09-04T15:16:37.006Z,1.00
2018-09-04T15:19:04.569Z,1.00
2018-09-04T15:21:32.043Z,1.00
2018-09-04T15:23:59.473Z,1.00
2018-09-04T15:26:26.948Z,1.00
2018-09-04T15:28:54.375Z,1.00
2018-09-04T15:31:22.866Z,1.00
2018-09-04T15:33:50.350Z,1.00
2018-09-04T15:36:17.822Z,1.00
2018-09-04T15:38:45.269Z,1.00
2018-09-04T15:41:12.704Z,1.00
2018-09-04T15:43:40.145Z,1.00
2018-09-04T15:46:07.712Z,1.00
2018-09-04T15:48:35.128Z,1.00
2018-09-04T15:51:02.593Z,1.00
2018-09-04T15:53:30.036Z,1.00
2018-09-04T15:55:57.615Z,1.00
2018-09-04T15:58:25.044Z,1.00
2018-09-04T16:00:52.464Z,1.00
2018-09-04T16:03:19.964Z,1.00
2018-09-04T16:05:47.631Z,1.00
2018-09-04T16:08:15.116Z,1.00
2018-09-04T16:10:42.584Z,1.00
2018-09-04T16:13:10.035Z,1.00
2018-09-04T16:15:37.505Z,1.00
2018-09-04T16:18:04.945Z,1.00
2018-09-04T16:20:32.442Z,1.00
2018-09-04T16:22:59.880Z,1.00
2018-09-04T16:25:27.368Z,1.00
2018-09-04T16:27:54.819Z,1.00
2018-09-04T16:30:22.277Z,1.00
2018-09-04T16:32:49.760Z,1.00
2018-09-04T16:35:17.243Z,1.00
2018-09-04T16:37:44.753Z,1.00
2018-09-04T16:40:12.961Z,1.00
2018-09-04T16:42:40.408Z,1.00
2018-09-04T16:45:07.961Z,1.00
2018-09-04T16:47:35.501Z,1.00
2018-09-04T16:50:03.033Z,1.00
2018-09-04T16:52:30.629Z,1.00
2018-09-04T16:54:58.160Z,1.00
2018-09-04T16:57:25.748Z,1.00
2018-09-04T16:59:53.156Z,1.00
2018-09-04T17:02:20.616Z,1.00
2018-09-04T17:04:48.218Z,1.00
2018-09-04T17:07:16.076Z,1.00
2018-09-04T17:09:43.602Z,1.00
2018-09-04T17:12:12.171Z,1.00
2018-09-04T17:14:39.709Z,1.00
2018-09-04T17:17:07.192Z,1.00
2018-09-04T17:19:34.824Z,1.00
2018-09-04T17:22:02.338Z,1.00
2018-09-04T17:24:29.939Z,1.00
2018-09-04T17:26:57.399Z,1.00
2018-09-04T17:29:24.872Z,1.00
2018-09-04T17:31:52.349Z,1.00
2018-09-04T17:34:19.883Z,1.00
2018-09-04T17:36:48.257Z,2.30
2018-09-04T17:39:15.814Z,1.70
2018-09-04T17:41:43.289Z,2.00
2018-09-04T17:44:10.748Z,2.10
2018-09-04T17:46:38.177Z,1.80
2018-09-04T17:49:05.643Z,1.80
2018-09-04T17:51:33.802Z,1.80
2018-09-04T17:54:01.304Z,3.60
2018-09-04T17:56:28.848Z,3.30
2018-09-04T17:58:56.387Z,4.00
2018-09-04T18:01:23.917Z,4.20
2018-09-04T18:03:51.582Z,4.20
2018-09-04T18:06:19.192Z,4.00
2018-09-04T18:08:50.958Z,3.70
2018-09-04T18:11:20.614Z,4.20
2018-09-04T18:13:49.329Z,4.00
2018-09-04T18:16:26.578Z,5.00
2018-09-04T18:18:54.037Z,5.40
2018-09-04T18:21:21.632Z,5.50
2018-09-04T18:23:49.258Z,6.50
2018-09-04T18:26:16.782Z,6.40
2018-09-04T18:28:44.319Z,6.10
2018-09-04T18:31:11.798Z,5.90
2018-09-04T18:33:39.256Z,6.10
2018-09-04T18:36:10.447Z,5.90
2018-09-04T18:38:37.904Z,6.20
2018-09-04T18:41:05.884Z,5.90
2018-09-04T18:43:36.989Z,6.00
2018-09-04T18:46:04.532Z,6.10
2018-09-04T18:48:31.971Z,6.70
2018-09-04T18:50:59.451Z,6.50
2018-09-04T18:53:26.888Z,7.00
2018-09-04T18:55:54.375Z,7.20
2018-09-04T18:58:21.851Z,7.60
2018-09-04T19:00:49.447Z,8.30
2018-09-04T19:06:09.856Z,9.10
2018-09-04T19:08:37.364Z,8.90
2018-09-04T19:11:04.947Z,9.30
2018-09-04T19:13:34.455Z,10.10
2018-09-04T19:16:02.028Z,10.10
2018-09-04T19:18:31.584Z,10.10
2018-09-04T19:20:59.049Z,11.30
2018-09-04T19:23:26.473Z,11.80
2018-09-04T19:25:55.020Z,10.90
2018-09-04T19:28:22.540Z,11.10
2018-09-04T19:30:50.042Z,11.40
2018-09-04T19:33:17.593Z,12.50
2018-09-04T19:35:45.057Z,12.90
2018-09-04T19:38:12.516Z,12.60
2018-09-04T19:40:40.058Z,12.50
2018-09-04T19:43:07.568Z,13.60
2018-09-04T19:45:35.089Z,12.90
2018-09-04T19:49:18.315Z,13.30
2018-09-04T19:51:45.830Z,14.10
2018-09-04T19:54:13.403Z,14.80
2018-09-04T19:56:40.899Z,14.20
2018-09-04T19:59:08.397Z,13.70
2018-09-04T20:01:35.893Z,13.80
2018-09-04T20:04:03.529Z,14.40
2018-09-04T20:06:31.368Z,14.20
2018-09-04T20:08:59.077Z,15.20
2018-09-04T20:11:26.994Z,14.40
2018-09-04T20:13:54.535Z,14.80
2018-09-04T20:16:22.109Z,16.10
2018-09-04T20:18:49.726Z,15.40
2018-09-04T20:21:17.408Z,14.70
2018-09-04T20:23:45.293Z,15.90
2018-09-04T20:26:12.817Z,16.10
2018-09-04T20:28:40.452Z,16.70
2018-09-04T20:31:07.958Z,16.50
2018-09-04T20:33:35.573Z,17.20
2018-09-04T20:36:03.285Z,17.20
2018-09-04T20:38:32.250Z,17.20
2018-09-04T20:41:02.294Z,17.10
2018-09-04T20:43:30.454Z,18.30
2018-09-04T20:45:58.010Z,18.30
2018-09-04T20:48:25.464Z,17.90
2018-09-04T20:50:53.026Z,19.50
2018-09-04T20:53:20.690Z,18.90
2018-09-04T20:55:48.608Z,19.10
2018-09-04T20:58:27.768Z,19.60
2018-09-04T21:01:06.723Z,19.60
2018-09-04T21:03:45.707Z,20.70
2018-09-04T21:06:24.609Z,20.30
2018-09-04T21:09:00.362Z,21.90
2018-09-04T21:11:27.763Z,22.00
2018-09-04T21:13:55.327Z,21.40
2018-09-04T21:16:22.727Z,22.10
2018-09-04T21:18:50.331Z,23.20
2018-09-04T21:21:17.663Z,22.10
2018-09-04T21:23:45.050Z,22.30
2018-09-04T21:26:12.397Z,22.30
2018-09-04T21:28:39.665Z,24.40
2018-09-04T21:31:07.030Z,24.10
2018-09-04T21:33:34.320Z,24.20
2018-09-04T21:36:01.816Z,24.00
2018-09-04T21:38:29.228Z,24.00
2018-09-04T21:40:56.496Z,25.10
2018-09-04T21:43:23.791Z,25.00
2018-09-04T21:45:52.173Z,26.50
2018-09-04T21:48:19.450Z,25.60
2018-09-04T21:50:46.832Z,25.40
2018-09-04T21:53:14.075Z,25.00
2018-09-04T21:55:41.346Z,26.50
2018-09-04T21:58:09.125Z,26.30
2018-09-04T22:00:36.407Z,26.50
2018-09-04T22:03:03.813Z,27.00
2018-09-04T22:05:31.259Z,26.90
2018-09-04T22:08:00.092Z,27.40
2018-09-04T22:10:27.449Z,26.70
2018-09-04T22:12:55.259Z,28.30
2018-09-04T22:15:23.396Z,28.50
2018-09-04T22:17:50.893Z,28.30
2018-09-04T22:20:18.157Z,28.60
2018-09-04T22:22:45.429Z,29.00
2018-09-04T22:25:12.701Z,29.40
2018-09-04T22:27:40.192Z,29.50
2018-09-04T22:30:07.471Z,29.50
2018-09-04T22:32:35.087Z,29.60
2018-09-04T22:35:02.696Z,29.40
2018-09-04T22:37:30.005Z,29.40
2018-09-04T22:39:57.251Z,29.90
2018-09-04T22:42:24.652Z,30.90
2018-09-04T22:44:51.937Z,29.40
2018-09-04T22:47:19.286Z,30.00
2018-09-04T22:49:52.139Z,31.60
2018-09-04T22:52:24.036Z,31.10
2018-09-04T22:54:53.448Z,30.70
2018-09-04T22:57:20.754Z,30.30
2018-09-04T22:59:48.055Z,29.30
2018-09-04T23:02:15.351Z,30.20
2018-09-04T23:04:42.756Z,30.90
2018-09-04T23:07:10.091Z,33.00
2018-09-04T23:09:37.556Z,31.90
2018-09-04T23:12:05.434Z,32.80
2018-09-04T23:14:32.773Z,32.70
2018-09-04T23:17:00.241Z,33.10
2018-09-04T23:19:27.525Z,33.10
2018-09-04T23:21:54.805Z,32.20
2018-09-04T23:24:22.053Z,32.80
2018-09-04T23:26:49.497Z,33.40
2018-09-04T23:29:16.995Z,34.20
2018-09-04T23:31:44.378Z,33.10
2018-09-04T23:34:11.851Z,32.80
2018-09-04T23:36:39.138Z,33.40
2018-09-04T23:39:06.394Z,33.80
2018-09-04T23:41:33.678Z,34.40
2018-09-04T23:44:00.974Z,36.10
2018-09-04T23:46:30.338Z,35.20
2018-09-04T23:48:57.589Z,34.50
2018-09-04T23:51:24.923Z,34.80
2018-09-04T23:53:52.149Z,33.70
2018-09-04T23:56:19.396Z,32.80
2018-09-04T23:58:46.709Z,33.70
